Jarrell, Texas
Current Conditions -  °F | °C
As of 11:53 AM on Thursday 30 Oct 2014 (Local Time) from KGTU Reporting Station
Scattered Clouds Scattered Clouds  
Wind Chill: 70°   Ceiling: Unl
Heat Index: 70°   Visibility: 10mi
Dew Point: 52°   Wind: 5mph
Humidity: 53%   Direction: 120°ESE
Pressure: 30.16"   Gusts: NA
Location:  30.82°N, 97.6°W
Report Text: KGTU 301653Z 12004KT 10SM SCT033 21/11 A3016
Loading
Personal Weather Stations






























Interactive Weather Map
Tropical Storm Tracking
New forecast layout! Learn more

10-Day Weather Forecast

Advertisements
Track Severe Weather on mobile